Time;durP1;ratioP1;P1;durP2;ratioP2;P2;SDS_P1;SDS_P2;PMS_P1;PMS_P2;Temp;Humidity;BMP_temperature;BMP_pressure;BME280_temperature;BME280_humidity;BME280_pressure;Samples;Min_cycle;Max_cycle;Signal;HPM_P1;HPM_P2
2023/01/02 00:01:52;;;;;;;;;90.00;71.00;;;;;7.58;100.00;100694.03;6284289;20;3676369;-58
2023/01/02 00:04:21;;;;;;;;;81.00;63.00;;;;;7.57;100.00;100686.91;6283444;20;3617967;-58
2023/01/02 00:06:51;;;;;;;;;90.67;76.33;;;;;7.64;100.00;100682.25;6284214;20;3677404;-60
2023/01/02 00:09:20;;;;;;;;;85.00;69.00;;;;;7.50;100.00;100685.38;6284844;20;3656545;-57
2023/01/02 00:11:50;;;;;;;;;86.33;63.00;;;;;7.60;100.00;100694.84;6285362;20;3661854;-58
2023/01/02 00:14:20;;;;;;;;;91.33;76.33;;;;;7.56;100.00;100689.66;6285140;20;3663842;-57
2023/01/02 00:16:50;;;;;;;;;93.00;75.67;;;;;7.38;100.00;100685.78;6286223;20;3687896;-57
2023/01/02 00:19:19;;;;;;;;;88.67;76.33;;;;;7.50;100.00;100696.06;6284659;20;3664938;-58
2023/01/02 00:21:49;;;;;;;;;88.00;70.25;;;;;7.34;100.00;100689.47;6286246;20;4431494;-59
2023/01/02 00:24:18;;;;;;;;;87.67;72.67;;;;;7.35;100.00;100689.44;6316726;20;3656674;-57
2023/01/02 00:26:48;;;;;;;;;88.67;66.33;;;;;7.42;100.00;100685.63;6282738;20;3666989;-57
2023/01/02 00:29:17;;;;;;;;;90.67;73.00;;;;;7.48;100.00;100688.09;6282346;20;3673201;-58
2023/01/02 00:31:47;;;;;;;;;88.67;72.67;;;;;7.33;100.00;100688.59;6283815;20;3661837;-57
2023/01/02 00:34:17;;;;;;;;;90.33;69.00;;;;;7.58;100.00;100687.78;6282620;20;3679459;-57
2023/01/02 00:36:46;;;;;;;;;86.33;69.33;;;;;7.52;100.00;100688.88;6282347;20;3653380;-58
2023/01/02 00:39:16;;;;;;;;;92.00;71.00;;;;;7.30;100.00;100688.69;6282105;20;3673279;-58
2023/01/02 00:41:45;;;;;;;;;90.67;72.33;;;;;7.46;100.00;100689.09;6282844;20;3678368;-58
2023/01/02 00:44:15;;;;;;;;;86.33;65.00;;;;;7.38;100.00;100686.66;6281797;20;3665979;-58
2023/01/02 00:46:45;;;;;;;;;90.67;71.33;;;;;7.54;100.00;100681.69;6281154;20;3685677;-58
2023/01/02 00:49:14;;;;;;;;;93.33;78.33;;;;;7.57;100.00;100681.56;6279204;20;3669042;-58
2023/01/02 00:51:45;;;;;;;;;95.25;74.75;;;;;7.52;100.00;100677.31;6282332;20;3689856;-57
2023/01/02 00:54:14;;;;;;;;;90.00;74.33;;;;;7.50;100.00;100676.47;6316239;20;3672284;-57
2023/01/02 00:56:42;;;;;;;;;89.00;69.50;;;;;7.51;100.00;100673.78;6274628;20;1942039;-59
2023/01/02 00:59:12;;;;;;;;;93.00;76.00;;;;;7.39;100.00;100674.16;6282938;20;3680505;-58
2023/01/02 01:01:40;;;;;;;;;91.33;75.33;;;;;7.42;100.00;100674.94;6279064;20;3681524;-59
2023/01/02 01:04:10;;;;;;;;;88.00;66.33;;;;;7.33;100.00;100674.38;6282294;20;3671119;-58
2023/01/02 01:06:40;;;;;;;;;89.67;75.00;;;;;7.18;100.00;100671.25;6282081;20;3675403;-59
2023/01/02 01:09:10;;;;;;;;;94.33;70.67;;;;;7.42;100.00;100687.41;6279848;20;3678455;-58
2023/01/02 01:11:39;;;;;;;;;98.33;82.33;;;;;7.47;100.00;100690.81;6280628;20;3671124;-58
2023/01/02 01:14:10;;;;;;;;;101.00;81.25;;;;;7.26;100.00;100687.91;6282418;20;3692033;-58
2023/01/02 01:16:40;;;;;;;;;94.67;78.00;;;;;7.50;100.00;100684.50;6278087;20;3674297;-59
2023/01/02 01:19:08;;;;;;;;;95.00;75.50;;;;;7.48;100.00;100692.59;6282636;20;1938848;-58
2023/01/02 01:21:39;;;;;;;;;95.00;74.75;;;;;7.41;100.00;100699.03;6281635;20;3683615;-59
2023/01/02 01:24:09;;;;;;;;;91.00;61.67;;;;;7.44;100.00;100693.59;6310608;20;3660734;-59
2023/01/02 01:26:38;;;;;;;;;91.00;67.33;;;;;7.26;100.00;100693.25;6278130;20;3671216;-59
2023/01/02 01:29:06;;;;;;;;;96.50;73.00;;;;;7.27;100.00;100686.13;6275197;20;1942054;-58
2023/01/02 01:31:36;;;;;;;;;100.25;77.75;;;;;7.34;100.00;100692.13;6280706;20;3692053;-57
2023/01/02 01:34:06;;;;;;;;;87.00;65.50;;;;;7.34;100.00;100690.34;6311866;20;4406672;-58
2023/01/02 01:36:36;;;;;;;;;75.00;53.67;;;;;7.33;100.00;100680.59;6306241;20;3637751;-58
2023/01/02 01:39:06;;;;;;;;;91.00;71.67;;;;;7.13;100.00;100675.88;6305594;20;3671222;-58
2023/01/02 01:41:35;;;;;;;;;92.33;67.67;;;;;7.16;100.00;100677.56;6276196;20;3667016;-59
2023/01/02 01:44:53;;;;;;;;;95.00;73.33;;;;;7.14;100.00;100682.97;6273823;20;3684630;-59
2023/01/02 01:47:39;;;;;;;;;98.67;69.67;;;;;6.98;100.00;100676.38;6276337;20;3695447;-59
2023/01/02 01:50:33;;;;;;;;;100.33;73.00;;;;;6.93;100.00;100672.97;6275560;20;3697242;-59
2023/01/02 01:53:14;;;;;;;;;113.00;78.75;;;;;6.82;100.00;100666.16;6279676;20;4466894;-59
2023/01/02 01:55:55;;;;;;;;;103.75;81.00;;;;;6.71;100.00;100668.25;6313066;20;3699200;-58
2023/01/02 01:58:33;;;;;;;;;95.33;74.00;;;;;6.80;100.00;100670.66;6312305;20;3687765;-58
2023/01/02 02:01:04;;;;;;;;;102.00;82.00;;;;;6.59;100.00;100657.97;6275261;20;3684740;-59
2023/01/02 02:03:34;;;;;;;;;91.50;68.50;;;;;6.76;100.00;100658.31;6268191;20;1939502;-58
2023/01/02 02:06:05;;;;;;;;;104.25;77.75;;;;;6.89;100.00;100652.59;6277263;20;3693057;-58
2023/01/02 02:08:56;;;;;;;;;107.67;83.00;;;;;6.97;100.00;100653.25;6280812;20;3695077;-59
2023/01/02 02:11:28;;;;;;;;;93.00;72.50;;;;;6.98;100.00;100629.19;6275400;20;3685763;-58
2023/01/02 02:14:00;;;;;;;;;115.00;88.00;;;;;6.88;100.00;100630.38;6305862;20;1957698;-58
2023/01/02 02:16:44;;;;;;;;;95.67;77.00;;;;;6.71;100.00;100633.56;6308430;20;3677465;-59
2023/01/02 02:20:26;;;;;;;;;102.75;83.25;;;;;7.08;100.00;100637.75;6278641;20;3697285;-58
2023/01/02 02:23:47;;;;;;;;;94.75;70.25;;;;;7.09;100.00;100631.50;6312490;20;4435637;-59
2023/01/02 02:26:52;;;;;;;;;184.00;153.63;;;;;7.04;100.00;100628.09;6306366;20;3727343;-58
2023/01/02 02:29:57;;;;;;;;;95.67;79.33;;;;;7.14;100.00;100624.22;6307262;20;3678466;-58
2023/01/02 02:33:00;;;;;;;;;95.00;82.33;;;;;7.12;100.00;100615.38;6277271;20;3675254;-59
2023/01/02 02:36:29;;;;;;;;;102.67;79.67;;;;;6.82;100.00;100628.78;6276279;20;3682729;-59
2023/01/02 02:39:44;;;;;;;;;115.00;90.25;;;;;6.95;100.00;100628.38;6275204;20;3691134;-59
2023/01/02 02:42:54;;;;;;;;;112.50;79.00;;;;;7.02;100.00;100619.25;6269071;20;3700323;-59
2023/01/02 02:46:02;;;;;;;;;124.00;85.67;;;;;6.99;100.00;100614.03;6272048;20;3686737;-60
2023/01/02 02:49:08;;;;;;;;;118.50;90.00;;;;;6.92;100.00;100613.34;6277814;20;4477354;-59
2023/01/02 02:52:01;;;;;;;;;102.67;79.33;;;;;6.89;100.00;100612.56;6310160;20;3678413;-59
2023/01/02 02:55:07;;;;;;;;;125.50;91.00;;;;;6.69;100.00;100608.75;6277179;20;4473189;-59
2023/01/02 02:57:39;;;;;;;;;102.33;77.67;;;;;6.87;100.00;100609.06;6276668;20;3683628;-59
2023/01/02 03:00:16;;;;;;;;;102.50;77.25;;;;;6.62;100.00;100601.84;6279079;20;3702503;-59
2023/01/02 03:02:46;;;;;;;;;110.75;87.00;;;;;6.79;100.00;100602.19;6276256;20;3697358;-59
2023/01/02 03:05:38;;;;;;;;;95.67;79.67;;;;;6.96;100.00;100600.78;6309805;20;3684625;-59
2023/01/02 03:08:27;;;;;;;;;94.67;79.67;;;;;6.86;100.00;100597.53;6275124;20;3668024;-60
2023/01/02 03:11:03;;;;;;;;;94.67;72.33;;;;;6.77;100.00;100587.16;6276709;20;3683641;-59
2023/01/02 03:13:50;;;;;;;;;92.33;69.67;;;;;6.75;100.00;100600.53;6275722;20;3662832;-59
2023/01/02 03:16:46;;;;;;;;;99.00;77.00;;;;;6.82;100.00;100594.09;6279723;20;3678566;-59
2023/01/02 03:19:42;;;;;;;;;108.75;81.50;;;;;6.69;100.00;100595.41;6277096;20;3697151;-59
2023/01/02 03:22:21;;;;;;;;;95.33;77.00;;;;;6.90;100.00;100598.28;6273072;20;3672188;-60
2023/01/02 03:24:53;;;;;;;;;93.33;67.33;;;;;6.75;100.00;100611.22;6277246;20;3685832;-60
2023/01/02 03:27:30;;;;;;;;;92.00;63.00;;;;;6.71;100.00;100612.22;6281087;20;4410788;-59
2023/01/02 03:30:33;;;;;;;;;108.00;74.50;;;;;6.72;100.00;100611.31;6304697;20;1950353;-59
2023/01/02 03:33:17;;;;;;;;;100.75;77.00;;;;;6.73;100.00;100613.03;6273297;20;3703413;-58
2023/01/02 03:35:57;;;;;;;;;102.00;81.33;;;;;6.60;100.00;100607.19;6308279;20;3693178;-59
2023/01/02 03:38:41;;;;;;;;;110.50;77.75;;;;;6.68;100.00;100606.97;6279938;20;3694263;-59
2023/01/02 03:41:23;;;;;;;;;101.00;76.25;;;;;6.68;100.00;100598.09;6276816;20;3690044;-59
2023/01/02 03:43:56;;;;;;;;;109.67;88.00;;;;;6.68;100.00;100595.44;6276707;20;3691951;-59
2023/01/02 03:47:04;;;;;;;;;104.67;82.33;;;;;6.60;100.00;100604.53;6278093;20;3699225;-60
2023/01/02 03:49:42;;;;;;;;;110.25;86.25;;;;;6.61;100.00;100608.09;6279097;20;4463765;-59
2023/01/02 03:52:11;;;;;;;;;90.33;69.67;;;;;6.64;100.00;100608.00;6274853;20;3670204;-59
2023/01/02 03:54:41;;;;;;;;;93.75;76.75;;;;;6.69;100.00;100611.41;6283591;20;4432673;-59
2023/01/02 03:57:53;;;;;;;;;118.50;82.50;;;;;6.67;100.00;100613.25;6305276;20;1944253;-59
2023/01/02 04:00:57;;;;;;;;;101.25;79.00;;;;;6.56;100.00;100604.69;6274654;20;3691928;-60
2023/01/02 04:04:01;;;;;;;;;114.00;81.75;;;;;6.60;100.00;100609.00;6271969;20;3701301;-60
2023/01/02 04:06:39;;;;;;;;;105.00;78.67;;;;;6.43;100.00;100603.31;6276308;20;3696139;-59
2023/01/02 04:09:20;;;;;;;;;102.00;76.50;;;;;6.44;100.00;100584.59;6277471;20;4458586;-59
2023/01/02 04:11:59;;;;;;;;;99.50;73.25;;;;;6.55;100.00;100602.94;6313958;20;4424245;-58
2023/01/02 04:14:45;;;;;;;;;121.00;86.50;;;;;6.47;100.00;100600.50;6309817;20;3703584;-59
2023/01/02 04:17:19;;;;;;;;;110.50;79.25;;;;;6.53;100.00;100595.00;6311191;20;4457553;-60
2023/01/02 04:20:05;;;;;;;;;95.67;69.67;;;;;6.51;100.00;100601.28;6276077;20;3688172;-59
2023/01/02 04:22:56;;;;;;;;;96.33;70.33;;;;;6.32;100.00;100607.19;6278598;20;3670052;-59
2023/01/02 04:25:44;;;;;;;;;93.00;65.33;;;;;6.36;100.00;100603.47;6281493;20;3663941;-59
2023/01/02 04:28:29;;;;;;;;;101.25;79.25;;;;;6.28;100.00;100610.84;6280439;20;3688841;-59
2023/01/02 04:31:18;;;;;;;;;94.33;75.00;;;;;6.43;100.00;100612.19;6313202;20;3675269;-59
2023/01/02 04:33:57;;;;;;;;;93.00;71.67;;;;;6.30;100.00;100611.66;6281018;20;3678528;-59
2023/01/02 04:36:27;;;;;;;;;103.50;80.25;;;;;6.36;100.00;100608.81;6282377;20;4442036;-60
2023/01/02 04:38:57;;;;;;;;;108.50;82.75;;;;;6.35;100.00;100622.22;6305189;20;3696143;-59
2023/01/02 04:41:27;;;;;;;;;96.67;64.33;;;;;6.36;100.00;100615.94;6280395;20;3663841;-59
2023/01/02 04:43:58;;;;;;;;;88.67;63.00;;;;;6.22;100.00;100615.50;6279128;20;3653392;-59
2023/01/02 04:46:28;;;;;;;;;97.00;74.33;;;;;6.26;100.00;100612.66;6311307;20;3672252;-60
2023/01/02 04:48:58;;;;;;;;;99.00;75.67;;;;;6.27;100.00;100613.56;6280639;20;3687843;-59
2023/01/02 04:51:28;;;;;;;;;96.67;76.67;;;;;6.28;100.00;100620.63;6284349;20;3669012;-60
2023/01/02 04:53:57;;;;;;;;;101.25;78.75;;;;;6.33;100.00;100624.91;6284274;20;4460790;-59
2023/01/02 04:56:27;;;;;;;;;93.67;76.00;;;;;6.30;100.00;100618.81;6279978;20;3662967;-59
2023/01/02 04:58:55;;;;;;;;;95.00;75.00;;;;;6.33;100.00;100622.25;6276451;20;1939943;-59
2023/01/02 05:01:24;;;;;;;;;93.00;65.67;;;;;6.37;100.00;100628.34;6284080;20;3665909;-60
2023/01/02 05:03:54;;;;;;;;;98.25;76.50;;;;;6.44;100.00;100626.41;6283989;20;4438767;-60
2023/01/02 05:06:24;;;;;;;;;94.00;70.67;;;;;6.26;100.00;100627.78;6314198;20;3671217;-59
2023/01/02 05:08:53;;;;;;;;;90.25;66.00;;;;;6.34;100.00;100623.97;6285550;20;4430515;-60
2023/01/02 05:11:24;;;;;;;;;95.00;73.00;;;;;6.43;100.00;100614.00;6308939;20;3680536;-59
2023/01/02 05:13:53;;;;;;;;;95.00;72.00;;;;;6.30;100.00;100617.00;6280745;20;3679439;-60
2023/01/02 05:16:23;;;;;;;;;91.67;65.00;;;;;6.25;100.00;100616.25;6277185;20;3663923;-59
2023/01/02 05:18:52;;;;;;;;;94.00;78.33;;;;;6.20;100.00;100612.84;6276008;20;3654449;-59
2023/01/02 05:24:10;;;;;;;;;88.50;66.75;;;;;6.12;100.00;100609.53;6278127;20;4417084;-59
2023/01/02 05:26:40;;;;;;;;;91.00;72.33;;;;;6.06;100.00;100612.38;6310775;20;3665894;-59
2023/01/02 05:29:09;;;;;;;;;85.00;61.00;;;;;6.02;100.00;100618.69;6279980;20;3633662;-62
2023/01/02 05:31:37;;;;;;;;;99.50;82.00;;;;;5.98;100.00;100617.94;6305076;20;1950374;-59
2023/01/02 05:34:09;;;;;;;;;96.33;78.67;;;;;6.05;100.00;100615.94;6276538;20;3662876;-58
2023/01/02 05:36:40;;;;;;;;;97.00;79.00;;;;;6.08;100.00;100621.19;6275555;20;3681515;-59
2023/01/02 05:39:12;;;;;;;;;122.25;92.75;;;;;6.08;100.00;100613.19;6316030;20;4467975;-59
2023/01/02 05:41:41;;;;;;;;;152.50;129.00;;;;;6.20;100.00;100618.19;6271266;20;1956592;-59
2023/01/02 05:44:11;;;;;;;;;181.50;142.75;;;;;6.22;100.00;100613.69;6276892;20;4482561;-59
2023/01/02 05:46:40;;;;;;;;;134.25;102.75;;;;;6.14;100.00;100610.38;6279867;20;4470187;-59
2023/01/02 05:49:11;;;;;;;;;208.50;174.75;;;;;6.04;100.00;100616.88;6272746;20;4464936;-60
2023/01/02 05:51:41;;;;;;;;;159.33;121.67;;;;;6.06;100.00;100599.91;6308337;20;3719036;-60
2023/01/02 05:54:10;;;;;;;;;94.25;70.50;;;;;6.02;100.00;100600.03;6281435;20;4432628;-60
2023/01/02 05:56:38;;;;;;;;;114.50;77.00;;;;;6.00;100.00;100596.53;6307298;20;1948456;-60
2023/01/02 05:59:07;;;;;;;;;219.00;170.00;;;;;5.88;100.00;100598.59;6269037;20;1961808;-60
2023/01/02 06:01:37;;;;;;;;;97.67;69.00;;;;;5.85;100.00;100600.50;6273775;20;1948366;-59
2023/01/02 06:04:07;;;;;;;;;151.25;123.50;;;;;5.87;100.00;100607.53;6311896;20;4490854;-60
2023/01/02 06:06:39;;;;;;;;;133.00;110.00;;;;;5.99;100.00;100602.81;6276320;20;1954716;-60
2023/01/02 06:09:14;;;;;;;;;195.75;166.75;;;;;5.77;100.00;100606.03;6277359;20;3709810;-59
2023/01/02 06:11:44;;;;;;;;;94.67;70.33;;;;;5.78;100.00;100599.78;6278923;20;3682721;-60
2023/01/02 06:14:14;;;;;;;;;122.75;96.00;;;;;5.88;100.00;100598.59;6280550;20;3708675;-59
2023/01/02 06:16:44;;;;;;;;;92.00;73.00;;;;;5.83;100.00;100605.84;6281889;20;3665901;-60
2023/01/02 06:19:13;;;;;;;;;81.67;61.67;;;;;5.91;100.00;100606.50;6275993;20;3631661;-59
2023/01/02 06:21:43;;;;;;;;;92.00;64.00;;;;;6.06;100.00;100613.25;6311219;20;3637788;-60
2023/01/02 06:24:12;;;;;;;;;87.33;64.67;;;;;5.99;100.00;100610.78;6271044;20;3650295;-59
2023/01/02 06:26:42;;;;;;;;;87.00;63.00;;;;;5.88;100.00;100611.94;6310212;20;3652391;-59
2023/01/02 06:29:11;;;;;;;;;84.00;63.00;;;;;5.93;100.00;100607.38;6280262;20;3516951;-64
2023/01/02 06:31:41;;;;;;;;;84.00;61.00;;;;;5.93;100.00;100614.47;6313671;20;3648286;-59
2023/01/02 06:34:19;;;;;;;;;85.67;62.00;;;;;5.85;100.00;100612.03;6279005;20;3647317;-60
2023/01/02 06:36:48;;;;;;;;;87.00;62.00;;;;;5.98;100.00;100587.72;6310669;20;3653503;-59
2023/01/02 06:39:18;;;;;;;;;98.75;72.25;;;;;5.96;100.00;100595.75;6279483;20;4452401;-60
2023/01/02 06:41:48;;;;;;;;;223.25;165.25;;;;;5.64;100.00;100600.16;6280916;20;4483560;-59
2023/01/02 06:44:17;;;;;;;;;175.25;129.25;;;;;5.56;100.00;100609.28;6280930;20;4467944;-59
2023/01/02 06:46:48;;;;;;;;;121.75;90.25;;;;;5.86;100.00;100610.22;6278719;20;3692045;-59
2023/01/02 06:49:15;;;;;;;;;139.00;110.00;;;;;5.84;100.00;100615.59;6307123;20;1946240;-60
2023/01/02 06:51:46;;;;;;;;;139.75;105.50;;;;;5.92;100.00;100618.03;6278472;20;4476258;-59
2023/01/02 06:54:16;;;;;;;;;162.67;123.00;;;;;5.86;100.00;100621.75;6313393;20;3712735;-59
2023/01/02 06:56:45;;;;;;;;;262.67;202.00;;;;;6.00;100.00;100615.19;6280012;20;3687824;-58
2023/01/02 06:59:16;;;;;;;;;134.00;104.00;;;;;5.70;100.00;100612.44;6276887;20;4489801;-59
2023/01/02 07:01:45;;;;;;;;;80.00;62.00;;;;;5.56;100.00;100612.81;6278079;20;2873290;-59
2023/01/02 07:04:16;;;;;;;;;84.00;62.00;;;;;5.74;100.00;100614.13;6309829;20;3648250;-59
2023/01/02 07:06:45;;;;;;;;;79.00;59.00;;;;;5.73;100.00;100620.34;6311946;20;3624338;-59
2023/01/02 07:09:15;;;;;;;;;90.33;63.67;;;;;5.79;100.00;100629.94;6309019;20;3659649;-59
2023/01/02 07:11:46;;;;;;;;;150.75;111.75;;;;;5.76;100.00;100628.25;6276489;20;4479383;-58
2023/01/02 07:14:16;;;;;;;;;121.00;93.00;;;;;5.86;100.00;100624.41;6312645;20;4461754;-59
2023/01/02 07:16:46;;;;;;;;;156.25;114.50;;;;;5.92;100.00;100634.94;6277679;20;3723312;-59
2023/01/02 07:19:14;;;;;;;;;104.50;80.00;;;;;5.96;100.00;100629.53;6271662;20;1942157;-59
2023/01/02 07:21:44;;;;;;;;;93.33;74.33;;;;;5.87;100.00;100633.28;6276160;20;3682619;-60
2023/01/02 07:24:15;;;;;;;;;144.67;103.33;;;;;6.00;100.00;100631.19;6278369;20;3728535;-58
2023/01/02 07:26:43;;;;;;;;;115.50;93.50;;;;;5.83;100.00;100632.50;6274054;20;1956585;-59
2023/01/02 07:29:13;;;;;;;;;164.00;119.00;;;;;5.93;100.00;100625.13;6272424;20;4502446;-59
2023/01/02 07:31:41;;;;;;;;;224.00;144.00;;;;;5.87;100.00;100630.63;6276284;20;1955552;-59
2023/01/02 07:34:09;;;;;;;;;144.00;113.00;;;;;5.87;100.00;100631.50;6269620;20;1963455;-59
2023/01/02 07:36:39;;;;;;;;;105.67;84.00;;;;;5.63;100.00;100632.16;6275653;20;3688820;-59
2023/01/02 07:39:08;;;;;;;;;97.33;82.67;;;;;5.83;100.00;100635.16;6280252;20;3659128;-59
2023/01/02 07:41:38;;;;;;;;;80.33;57.00;;;;;5.73;100.00;100623.00;6277447;20;3652532;-58
2023/01/02 07:44:08;;;;;;;;;78.33;59.67;;;;;5.92;100.00;100642.94;6271372;20;3633590;-58
2023/01/02 07:46:37;;;;;;;;;79.33;58.67;;;;;6.02;100.00;100645.34;6308518;20;3646099;-59
2023/01/02 07:49:06;;;;;;;;;76.00;58.00;;;;;6.03;100.00;100644.44;6281455;20;2817434;-59
2023/01/02 07:51:36;;;;;;;;;117.33;89.00;;;;;5.91;100.00;100646.50;6281643;20;3696218;-59
2023/01/02 07:54:05;;;;;;;;;84.67;62.67;;;;;5.92;100.00;100644.69;6281700;20;3644084;-58
2023/01/02 07:56:35;;;;;;;;;93.67;68.33;;;;;5.97;100.00;100652.59;6310944;20;3670041;-58
2023/01/02 07:59:04;;;;;;;;;88.00;65.00;;;;;5.65;100.00;100641.84;6285050;20;3665874;-59
2023/01/02 08:01:34;;;;;;;;;78.67;58.67;;;;;5.73;100.00;100639.00;6282712;20;3661813;-59
2023/01/02 08:04:04;;;;;;;;;81.67;59.00;;;;;5.93;100.00;100649.13;6316278;20;3654493;-59
2023/01/02 08:06:34;;;;;;;;;76.67;58.00;;;;;5.56;100.00;100644.75;6314077;20;3642996;-59
2023/01/02 08:09:03;;;;;;;;;84.33;59.67;;;;;5.82;100.00;100627.19;6310211;20;3662023;-60
2023/01/02 08:11:33;;;;;;;;;80.33;55.67;;;;;5.96;100.00;100634.88;6277901;20;3648223;-59
2023/01/02 08:14:02;;;;;;;;;83.00;57.50;;;;;5.62;100.00;100635.75;6274468;20;3651547;-58
2023/01/02 08:16:32;;;;;;;;;79.00;57.33;;;;;5.87;100.00;100641.28;6313725;20;3658733;-58
2023/01/02 08:19:01;;;;;;;;;73.67;54.67;;;;;6.00;100.00;100639.19;6281163;20;3646151;-59
2023/01/02 08:21:31;;;;;;;;;75.33;53.33;;;;;6.17;100.00;100644.94;6314220;20;3655687;-59
2023/01/02 08:24:01;;;;;;;;;78.67;56.33;;;;;6.04;100.00;100643.53;6277620;20;3647316;-60
2023/01/02 08:26:30;;;;;;;;;77.67;56.00;;;;;5.96;100.00;100650.88;6280688;20;3635657;-62
2023/01/02 08:29:00;;;;;;;;;74.67;52.00;;;;;6.08;100.00;100650.50;6312236;20;3638002;-62
2023/01/02 08:31:30;;;;;;;;;80.00;58.33;;;;;6.22;100.00;100653.69;6310512;20;3641373;-62
2023/01/02 08:34:00;;;;;;;;;88.67;64.33;;;;;6.23;100.00;100652.75;6305578;20;3638955;-62
2023/01/02 08:36:29;;;;;;;;;88.33;65.67;;;;;6.01;100.00;100648.97;6280778;20;3668003;-59
2023/01/02 08:38:59;;;;;;;;;80.33;61.67;;;;;6.36;100.00;100656.81;6278212;20;3624241;-59
2023/01/02 08:41:39;;;;;;;;;74.33;56.00;;;;;6.09;100.00;100652.28;6313325;20;3641948;-59
2023/01/02 08:44:07;;;;;;;;;73.00;55.00;;;;;6.23;100.00;100647.44;6316410;20;3663808;-61
2023/01/02 08:46:37;;;;;;;;;66.00;49.67;;;;;6.20;100.00;100650.19;6283164;20;3628440;-58
2023/01/02 08:49:11;;;;;;;;;72.67;55.33;;;;;6.33;100.00;100656.03;6311716;20;3628406;-56
2023/01/02 08:51:41;;;;;;;;;73.67;49.00;;;;;6.58;100.00;100665.09;6310418;20;3639846;-59
2023/01/02 08:54:10;;;;;;;;;70.00;56.00;;;;;6.36;100.00;100662.16;6311251;20;3618196;-57
2023/01/02 08:56:41;;;;;;;;;74.67;56.00;;;;;6.64;100.00;100658.69;6314625;20;3641934;-58
2023/01/02 08:59:12;;;;;;;;;76.33;58.00;;;;;6.73;100.00;100654.88;6314084;20;3641917;-58
2023/01/02 09:01:41;;;;;;;;;72.33;55.67;;;;;6.79;100.00;100662.69;6308010;20;3629465;-59
2023/01/02 09:04:11;;;;;;;;;72.00;55.00;;;;;6.74;100.00;100656.59;6309744;20;3619123;-58
2023/01/02 09:06:43;;;;;;;;;88.00;66.00;;;;;6.48;100.00;100660.06;6312932;20;3654453;-59
2023/01/02 09:09:15;;;;;;;;;72.33;59.00;;;;;6.73;100.00;100661.06;6310741;20;3623194;-59
2023/01/02 09:11:50;;;;;;;;;60.67;48.00;;;;;6.81;100.00;100664.38;6315825;20;2867047;-59
2023/01/02 09:14:21;;;;;;;;;81.33;63.00;;;;;6.33;100.00;100659.59;6312583;20;3635730;-58
2023/01/02 09:16:52;;;;;;;;;66.00;52.67;;;;;6.80;100.00;100662.66;6312244;20;2873324;-59
2023/01/02 09:19:22;;;;;;;;;68.33;53.00;;;;;6.82;100.00;100660.81;6313046;20;3635735;-59
2023/01/02 09:21:52;;;;;;;;;74.00;56.33;;;;;6.98;100.00;100666.56;6311930;20;3642056;-59
2023/01/02 09:24:21;;;;;;;;;64.67;50.00;;;;;6.88;100.00;100658.88;6311440;20;3617008;-59
2023/01/02 09:26:52;;;;;;;;;69.00;51.67;;;;;6.58;100.00;100650.84;6312265;20;3658694;-59
2023/01/02 09:29:21;;;;;;;;;67.33;52.33;;;;;7.03;100.00;100643.25;6309380;20;3626357;-58
2023/01/02 09:31:52;;;;;;;;;72.33;55.00;;;;;6.92;100.00;100647.16;6309922;20;3641907;-57
2023/01/02 09:34:21;;;;;;;;;72.33;54.00;;;;;7.06;100.00;100644.06;6279673;20;3631559;-57
2023/01/02 09:36:51;;;;;;;;;72.00;54.50;;;;;7.05;100.00;100640.53;6310443;20;3509643;-58
2023/01/02 09:39:20;;;;;;;;;71.00;54.00;;;;;7.19;100.00;100638.31;6312067;20;3627345;-56
2023/01/02 09:41:59;;;;;;;;;82.00;62.00;;;;;6.95;100.00;100628.38;6309236;20;3643154;-58
2023/01/02 09:44:38;;;;;;;;;74.00;55.00;;;;;6.83;100.00;100640.34;6310478;20;3633572;-57
2023/01/02 09:47:24;;;;;;;;;72.00;57.00;;;;;7.36;100.00;100631.53;6313844;20;3634701;-58
2023/01/02 09:50:03;;;;;;;;;75.33;55.67;;;;;7.08;100.00;100624.41;6303880;20;3652402;-57
2023/01/02 09:52:42;;;;;;;;;104.00;91.50;;;;;7.04;100.00;100617.44;6306111;20;1950459;-58
2023/01/02 09:55:34;;;;;;;;;79.67;58.00;;;;;7.33;100.00;100623.63;6280555;20;3655467;-58
2023/01/02 09:58:47;;;;;;;;;79.33;59.67;;;;;7.33;100.00;100615.59;6279099;20;2881814;-59
2023/01/02 10:01:37;;;;;;;;;97.00;80.00;;;;;7.31;100.00;100601.41;6309879;20;4412743;-59
2023/01/02 10:04:32;;;;;;;;;81.25;61.00;;;;;7.16;100.00;100606.34;6313641;20;3642054;-58
2023/01/02 10:07:18;;;;;;;;;56.50;46.00;;;;;7.05;100.00;100605.81;6307513;20;2842538;-59
2023/01/02 10:10:16;;;;;;;;;92.50;76.00;;;;;7.20;100.00;100599.09;6284660;20;1937833;-59
2023/01/02 10:13:16;;;;;;;;;82.33;63.67;;;;;7.26;100.00;100602.44;6277568;20;3629558;-59
2023/01/02 10:15:50;;;;;;;;;79.67;60.00;;;;;6.79;100.00;100606.63;6279385;20;3652477;-58
2023/01/02 10:18:36;;;;;;;;;81.00;61.00;;;;;6.80;100.00;100595.94;6274786;20;3638805;-58
2023/01/02 10:21:16;;;;;;;;;86.67;69.67;;;;;7.10;100.00;100585.19;6308807;20;3659778;-58
2023/01/02 10:24:16;;;;;;;;;85.67;61.00;;;;;7.36;100.00;100580.78;6278780;20;3649270;-56
2023/01/02 10:26:52;;;;;;;;;80.67;60.00;;;;;7.49;100.00;100574.06;6277801;20;3631674;-59
2023/01/02 10:29:32;;;;;;;;;71.33;56.00;;;;;7.38;100.00;100568.25;6307872;20;3615905;-59
2023/01/02 10:32:17;;;;;;;;;72.00;56.00;;;;;7.56;100.00;100570.28;6306965;20;3629979;-60
2023/01/02 10:35:30;;;;;;;;;80.00;58.33;;;;;7.44;100.00;100560.88;6302997;20;3634666;-59
2023/01/02 10:38:01;;;;;;;;;79.33;60.67;;;;;7.23;100.00;100559.81;6307125;20;2876424;-56
2023/01/02 10:40:32;;;;;;;;;76.33;51.67;;;;;6.79;100.00;100564.84;6303843;20;3647213;-55
2023/01/02 10:43:02;;;;;;;;;75.00;53.67;;;;;6.95;100.00;100564.31;6275644;20;3635835;-56
2023/01/02 10:45:33;;;;;;;;;73.75;55.25;;;;;7.16;100.00;100555.63;6311751;20;4389192;-59
2023/01/02 10:48:03;;;;;;;;;72.00;52.33;;;;;7.22;100.00;100555.41;6309040;20;3638843;-59
2023/01/02 10:50:49;;;;;;;;;69.33;55.33;;;;;7.13;100.00;100560.16;6309802;20;3615931;-59
2023/01/02 10:53:35;;;;;;;;;69.33;54.67;;;;;7.22;100.00;100551.88;6309669;20;3627333;-56
2023/01/02 10:56:17;;;;;;;;;92.00;65.00;;;;;7.02;100.00;100545.38;6311749;20;3665971;-58
2023/01/02 10:58:50;;;;;;;;;74.33;58.00;;;;;6.57;100.00;100547.75;6279608;20;3631591;-57
2023/01/02 11:01:21;;;;;;;;;66.67;49.67;;;;;6.48;100.00;100538.22;6312092;20;3614839;-56
2023/01/02 11:03:54;;;;;;;;;73.33;56.33;;;;;6.91;100.00;100547.53;6310138;20;3620256;-57
2023/01/02 11:06:30;;;;;;;;;77.67;56.00;;;;;6.66;100.00;100534.13;6311648;20;3661892;-57
2023/01/02 11:09:34;;;;;;;;;75.67;57.00;;;;;6.78;100.00;100536.38;6272513;20;3639901;-57
2023/01/02 11:12:13;;;;;;;;;96.50;77.25;;;;;7.26;100.00;100527.66;6309537;20;3685722;-58
2023/01/02 11:14:44;;;;;;;;;89.13;67.88;;;;;6.99;100.00;100528.59;6305807;20;3688914;-57
2023/01/02 11:17:25;;;;;;;;;76.33;60.00;;;;;7.25;100.00;100520.56;6272084;20;3618135;-57
2023/01/02 11:19:56;;;;;;;;;92.25;69.25;;;;;7.49;100.00;100517.97;6308755;20;4436190;-58
2023/01/02 11:22:35;;;;;;;;;94.67;82.00;;;;;7.59;100.00;100515.84;6308182;20;3661748;-56
2023/01/02 11:25:26;;;;;;;;;74.67;58.00;;;;;7.43;100.00;100502.16;6278526;20;3609658;-56
2023/01/02 11:28:00;;;;;;;;;84.33;62.33;;;;;7.50;100.00;100498.31;6311558;20;3644118;-57
2023/01/02 11:30:46;;;;;;;;;76.67;58.00;;;;;7.61;100.00;100500.59;6309802;20;3613845;-58
2023/01/02 11:33:23;;;;;;;;;69.00;55.00;;;;;7.69;100.00;100499.41;6276237;20;2748334;-58
2023/01/02 11:36:03;;;;;;;;;138.00;121.00;;;;;7.57;100.00;100499.84;6310770;20;4485800;-57